TFM - Tactical Decision Aid (Experimental) INFO Settings
ID: Runway Winds: CIG/VIS Threshold: METAR Board: Map:

KATL - Atlanta-Hartsfield Jackson Intl

Updated at: 0406 UTC 11 Dec 2017
Latest TAF at: 0344 UTC 11 Dec 2017

TAF Board

Time0352Z11/05Z11/06Z11/07Z11/08Z11/09Z11/10Z11/11Z11/12Z11/13Z11/14Z11/15Z11/16Z11/17Z
TypeOBSPRVLPRVLPRVLPRVLPRVLPRVLPRVLPRVLPRVLPRVLPRVLPRVLPRVL
VIS10>6>6>6>6>6>6>6>6>6>6>6>6>6
CIG----------------------------
CoverCLRSKCSKCSKCSKCSKCSKCSKCSKCSKCSKCSKCSKCSKC
FltCatVFRVFRVFRVFRVFRVFRVFRVFRVFRVFRVFRVFRVFRVFR
WX----------------------------
WDir270270270270270270270270270270270270270270
WSpd65555555556666
WGst----------------------------
TAF
KATL 110344Z 1104/1206 27005KT P6SM SKC
  FM111400 27006KT P6SM SKC
  FM111800 25008KT P6SM FEW070
  FM112300 24005KT P6SM FEW250


METAR
KATL 110352Z 27006KT 10SM CLR 02/M03 A3025 RMK AO2 SLP250 T00171028
KATL 110252Z 25005KT 10SM CLR 03/M04 A3022 RMK AO2 SLP243 T00281039 56002

TAF/METAR Board Legend

Potential Impact
  None Marginal Slight Moderate High
Visibility (sm) >5 3≤X≤5 1≤X<3 0.5≤X<1 <0.5
Ceiling (100 ft) >30 10≤X≤30 4≤X<10 2≤X<4 <2
Wind Speed (kt) <10 10≤X<20 20≤X<30 ≥30
Wind Gust (kt) <15 15≤X<25 25≤X<35 ≥35
Weather No Wx Reported VCTS -TS,-FZRA TS,FZRA +TS,+FZRA